Time,TemperatureF,DewpointF,PressureIn,WindDirection,WindDirectionDegrees,WindSpeedMPH,WindSpeedGustMPH,Humidity,HourlyPrecipIn,Conditions,Clouds,dailyrainin,SoftwareType,DateUTC
2013-02-02 00:07:00,38.8,22.3,30.14,North,0,7.4,-999.0,51,-99.99,,,0.00,Acu-Link.com,2013-02-02 07:07:00,
2013-02-02 00:22:00,38.3,21.8,30.14,West,270,6.7,-999.0,51,-99.99,,,0.00,Acu-Link.com,2013-02-02 07:22:00,
2013-02-02 00:37:00,37.9,21.9,30.14,NNW,337,7.4,-999.0,52,-99.99,,,0.00,Acu-Link.com,2013-02-02 07:37:00,
2013-02-02 00:52:00,38.1,22.1,30.14,NW,315,8.3,-999.0,52,-99.99,,,0.00,Acu-Link.com,2013-02-02 07:52:00,
2013-02-02 01:07:00,37.8,22.2,30.14,West,270,7.4,-999.0,53,-99.99,,,0.00,Acu-Link.com,2013-02-02 08:07:00,
2013-02-02 01:23:00,37.8,22.6,30.15,NNW,337,2.7,-999.0,54,-99.99,,,0.00,Acu-Link.com,2013-02-02 08:23:00,
2013-02-02 01:38:00,36.7,22.5,30.15,NW,315,4.3,-999.0,56,-99.99,,,0.00,Acu-Link.com,2013-02-02 08:38:00,
2013-02-02 01:53:00,36.1,22.8,30.16,NNW,337,6.7,-999.0,58,-99.99,,,0.00,Acu-Link.com,2013-02-02 08:53:00,
2013-02-02 02:16:00,36.0,22.6,30.16,ENE,67,3.8,-999.0,58,-99.99,,,0.00,Acu-Link.com,2013-02-02 09:16:00,
2013-02-02 02:31:00,34.7,22.6,30.17,NNE,22,5.1,-999.0,61,-99.99,,,0.00,Acu-Link.com,2013-02-02 09:31:00,
2013-02-02 02:46:00,34.0,22.4,30.18,ESE,112,0.0,-999.0,62,-99.99,,,0.00,Acu-Link.com,2013-02-02 09:46:00,
2013-02-02 03:02:00,33.6,22.4,30.18,North,0,4.3,-999.0,63,-99.99,,,0.00,Acu-Link.com,2013-02-02 10:02:00,
2013-02-02 03:17:00,35.6,22.7,30.18,NW,315,4.7,-999.0,59,-99.99,,,0.00,Acu-Link.com,2013-02-02 10:17:00,
2013-02-02 03:32:00,35.4,22.9,30.18,WNW,292,2.7,-999.0,60,-99.99,,,0.00,Acu-Link.com,2013-02-02 10:32:00,
2013-02-02 03:47:00,35.4,22.9,30.18,NW,315,5.1,-999.0,60,-99.99,,,0.00,Acu-Link.com,2013-02-02 10:47:00,
2013-02-02 04:02:00,35.1,23.4,30.18,NNW,337,7.8,-999.0,62,-99.99,,,0.00,Acu-Link.com,2013-02-02 11:02:00,
2013-02-02 04:18:00,36.9,23.9,30.19,NNW,337,10.3,-999.0,59,-99.99,,,0.00,Acu-Link.com,2013-02-02 11:18:00,
2013-02-02 04:33:00,35.2,22.8,30.18,East,90,3.1,-999.0,60,-99.99,,,0.00,Acu-Link.com,2013-02-02 11:33:00,
2013-02-02 04:48:00,33.3,22.0,30.19,ESE,112,2.7,-999.0,63,-99.99,,,0.00,Acu-Link.com,2013-02-02 11:48:00,
2013-02-02 05:03:00,31.5,21.8,30.19,NE,45,1.1,-999.0,67,-99.99,,,0.00,Acu-Link.com,2013-02-02 12:03:00,
2013-02-02 05:18:00,29.8,21.3,30.19,East,90,1.6,-999.0,70,-99.99,,,0.00,Acu-Link.com,2013-02-02 12:18:00,
2013-02-02 05:34:00,29.3,21.4,30.19,ENE,67,5.1,-999.0,72,-99.99,,,0.00,Acu-Link.com,2013-02-02 12:34:00,
2013-02-02 05:49:00,29.8,21.9,30.19,ENE,67,2.2,-999.0,72,-99.99,,,0.00,Acu-Link.com,2013-02-02 12:49:00,
2013-02-02 06:04:00,28.8,21.2,30.19,NE,45,2.2,-999.0,73,-99.99,,,0.00,Acu-Link.com,2013-02-02 13:04:00,
2013-02-02 06:19:00,28.9,21.7,30.19,NNE,22,2.7,-999.0,74,-99.99,,,0.00,Acu-Link.com,2013-02-02 13:19:00,
2013-02-02 06:34:00,29.1,21.6,30.19,ENE,67,0.0,-999.0,73,-99.99,,,0.00,Acu-Link.com,2013-02-02 13:34:00,
2013-02-02 06:50:00,28.8,20.9,30.19,NE,45,2.2,-999.0,72,-99.99,,,0.00,Acu-Link.com,2013-02-02 13:50:00,
2013-02-02 07:05:00,28.2,21.0,30.20,ENE,67,2.2,-999.0,74,-99.99,,,0.00,Acu-Link.com,2013-02-02 14:05:00,
2013-02-02 07:20:00,28.8,21.5,30.21,NE,45,2.7,-999.0,74,-99.99,,,0.00,Acu-Link.com,2013-02-02 14:20:00,
2013-02-02 07:35:00,30.0,26.4,30.21,NE,45,0.0,-999.0,86,-99.99,,,0.00,Acu-Link.com,2013-02-02 14:35:00,
2013-02-02 07:50:00,29.1,21.9,30.21,ESE,112,1.6,-999.0,74,-99.99,,,0.00,Acu-Link.com,2013-02-02 14:50:00,
2013-02-02 08:06:00,30.7,22.1,30.21,East,90,2.2,-999.0,70,-99.99,,,0.00,Acu-Link.com,2013-02-02 15:06:00,
2013-02-02 08:21:00,32.9,22.8,30.22,ESE,112,6.3,-999.0,66,-99.99,,,0.00,Acu-Link.com,2013-02-02 15:21:00,
2013-02-02 08:36:00,34.2,23.3,30.23,East,90,4.7,-999.0,64,-99.99,,,0.00,Acu-Link.com,2013-02-02 15:36:00,
2013-02-02 08:51:00,36.1,24.0,30.23,ENE,67,4.7,-999.0,61,-99.99,,,0.00,Acu-Link.com,2013-02-02 15:51:00,
2013-02-02 09:06:00,37.9,24.1,30.24,NE,45,6.3,-999.0,57,-99.99,,,0.00,Acu-Link.com,2013-02-02 16:06:00,
2013-02-02 09:22:00,39.2,24.4,30.24,NE,45,4.3,-999.0,55,-99.99,,,0.00,Acu-Link.com,2013-02-02 16:22:00,
2013-02-02 09:37:00,39.9,24.2,30.24,NE,45,4.7,-999.0,53,-99.99,,,0.00,Acu-Link.com,2013-02-02 16:37:00,
2013-02-02 09:52:00,40.5,24.7,30.25,ESE,112,2.2,-999.0,53,-99.99,,,0.00,Acu-Link.com,2013-02-02 16:52:00,
2013-02-02 10:07:00,42.6,25.3,30.25,ENE,67,4.7,-999.0,50,-99.99,,,0.00,Acu-Link.com,2013-02-02 17:07:00,
2013-02-02 10:23:00,43.5,25.1,30.25,East,90,3.8,-999.0,48,-99.99,,,0.00,Acu-Link.com,2013-02-02 17:23:00,
2013-02-02 10:38:00,44.2,25.3,30.24,NNW,337,2.2,-999.0,47,-99.99,,,0.00,Acu-Link.com,2013-02-02 17:38:00,
2013-02-02 10:53:00,46.0,24.8,30.25,ENE,67,3.1,-999.0,43,-99.99,,,0.00,Acu-Link.com,2013-02-02 17:53:00,
2013-02-02 11:08:00,47.1,25.2,30.25,NNW,337,1.6,-999.0,42,-99.99,,,0.00,Acu-Link.com,2013-02-02 18:08:00,
2013-02-02 11:23:00,47.3,24.8,30.25,ESE,112,1.6,-999.0,41,-99.99,,,0.00,Acu-Link.com,2013-02-02 18:23:00,
2013-02-02 11:39:00,48.6,25.3,30.24,West,270,2.7,-999.0,40,-99.99,,,0.00,Acu-Link.com,2013-02-02 18:39:00,
2013-02-02 11:54:00,50.0,25.4,30.24,SW,225,1.1,-999.0,38,-99.99,,,0.00,Acu-Link.com,2013-02-02 18:54:00,
2013-02-02 12:09:00,50.9,25.6,30.23,NNE,22,1.6,-999.0,37,-99.99,,,0.00,Acu-Link.com,2013-02-02 19:09:00,
2013-02-02 12:24:00,51.4,24.7,30.23,SE,135,0.0,-999.0,35,-99.99,,,0.00,Acu-Link.com,2013-02-02 19:24:00,
2013-02-02 12:39:00,52.2,24.7,30.21,NNW,337,1.1,-999.0,34,-99.99,,,0.00,Acu-Link.com,2013-02-02 19:39:00,
2013-02-02 12:55:00,52.5,24.3,30.20,West,270,2.2,-999.0,33,-99.99,,,0.00,Acu-Link.com,2013-02-02 19:55:00,
2013-02-02 13:10:00,54.0,24.8,30.20,West,270,4.7,-999.0,32,-99.99,,,0.00,Acu-Link.com,2013-02-02 20:10:00,
2013-02-02 13:25:00,54.9,24.8,30.19,WSW,247,3.8,-999.0,31,-99.99,,,0.00,Acu-Link.com,2013-02-02 20:25:00,
2013-02-02 13:40:00,56.1,24.3,30.18,East,90,4.7,-999.0,29,-99.99,,,0.00,Acu-Link.com,2013-02-02 20:40:00,
2013-02-02 13:55:00,55.9,23.3,30.17,WNW,292,4.3,-999.0,28,-99.99,,,0.00,Acu-Link.com,2013-02-02 20:55:00,
2013-02-02 14:11:00,56.8,23.2,30.17,NNE,22,9.4,-999.0,27,-99.99,,,0.00,Acu-Link.com,2013-02-02 21:11:00,
2013-02-02 14:26:00,56.1,22.6,30.16,ENE,67,2.2,-999.0,27,-99.99,,,0.00,Acu-Link.com,2013-02-02 21:26:00,
2013-02-02 14:41:00,56.7,23.1,30.16,East,90,6.3,-999.0,27,-99.99,,,0.00,Acu-Link.com,2013-02-02 21:41:00,
2013-02-02 14:56:00,55.8,23.2,30.16,South,180,3.1,-999.0,28,-99.99,,,0.00,Acu-Link.com,2013-02-02 21:56:00,
2013-02-02 15:12:00,56.7,23.1,30.15,ENE,67,4.3,-999.0,27,-99.99,,,0.00,Acu-Link.com,2013-02-02 22:12:00,
2013-02-02 15:27:00,56.1,22.6,30.15,NE,45,0.0,-999.0,27,-99.99,,,0.00,Acu-Link.com,2013-02-02 22:27:00,
2013-02-02 15:42:00,56.3,21.9,30.15,ENE,67,2.7,-999.0,26,-99.99,,,0.00,Acu-Link.com,2013-02-02 22:42:00,
2013-02-02 15:57:00,57.0,21.6,30.15,South,180,1.1,-999.0,25,-99.99,,,0.00,Acu-Link.com,2013-02-02 22:57:00,
2013-02-02 16:12:00,56.3,21.9,30.14,NNE,22,3.8,-999.0,26,-99.99,,,0.00,Acu-Link.com,2013-02-02 23:12:00,
2013-02-02 16:28:00,56.8,21.4,30.14,ESE,112,2.2,-999.0,25,-99.99,,,0.00,Acu-Link.com,2013-02-02 23:28:00,
2013-02-02 16:43:00,57.0,21.6,30.14,SE,135,1.6,-999.0,25,-99.99,,,0.00,Acu-Link.com,2013-02-02 23:43:00,
2013-02-02 16:58:00,56.7,21.3,30.13,ESE,112,0.0,-999.0,25,-99.99,,,0.00,Acu-Link.com,2013-02-02 23:58:00,
2013-02-02 17:13:00,55.9,21.6,30.13,SE,135,0.0,-999.0,26,-99.99,,,0.00,Acu-Link.com,2013-02-03 00:13:00,
2013-02-02 17:28:00,54.5,21.2,30.13,ESE,112,1.6,-999.0,27,-99.99,,,0.00,Acu-Link.com,2013-02-03 00:28:00,
2013-02-02 17:44:00,52.7,20.5,30.13,ESE,112,0.0,-999.0,28,-99.99,,,0.00,Acu-Link.com,2013-02-03 00:44:00,
2013-02-02 17:59:00,50.9,20.6,30.14,SE,135,0.0,-999.0,30,-99.99,,,0.00,Acu-Link.com,2013-02-03 00:59:00,
2013-02-02 18:14:00,49.6,21.0,30.15,NE,45,1.6,-999.0,32,-99.99,,,0.00,Acu-Link.com,2013-02-03 01:14:00,
2013-02-02 18:29:00,49.1,20.5,30.15,NE,45,0.0,-999.0,32,-99.99,,,0.00,Acu-Link.com,2013-02-03 01:29:00,
2013-02-02 18:44:00,47.3,20.4,30.15,WNW,292,1.1,-999.0,34,-99.99,,,0.00,Acu-Link.com,2013-02-03 01:44:00,
2013-02-02 19:00:00,47.7,20.7,30.16,WNW,292,2.7,-999.0,34,-99.99,,,0.00,Acu-Link.com,2013-02-03 02:00:00,
2013-02-02 19:15:00,47.1,20.9,30.15,West,270,4.7,-999.0,35,-99.99,,,0.00,Acu-Link.com,2013-02-03 02:15:00,
2013-02-02 19:30:00,46.4,20.3,30.16,WNW,292,2.7,-999.0,35,-99.99,,,0.00,Acu-Link.com,2013-02-03 02:30:00,
2013-02-02 19:45:00,46.0,19.9,30.16,NNW,337,2.7,-999.0,35,-99.99,,,0.00,Acu-Link.com,2013-02-03 02:45:00,
2013-02-02 20:01:00,44.8,20.1,30.16,North,0,1.6,-999.0,37,-99.99,,,0.00,Acu-Link.com,2013-02-03 03:01:00,
2013-02-02 20:16:00,44.2,19.6,30.17,North,0,4.7,-999.0,37,-99.99,,,0.00,Acu-Link.com,2013-02-03 03:16:00,
2013-02-02 20:31:00,44.4,19.8,30.17,North,0,2.7,-999.0,37,-99.99,,,0.00,Acu-Link.com,2013-02-03 03:31:00,
2013-02-02 20:46:00,44.1,19.5,30.18,NNW,337,2.2,-999.0,37,-99.99,,,0.00,Acu-Link.com,2013-02-03 03:46:00,
2013-02-02 21:01:00,42.8,19.0,30.17,NW,315,0.0,-999.0,38,-99.99,,,0.00,Acu-Link.com,2013-02-03 04:01:00,
2013-02-02 21:16:00,42.1,18.9,30.18,WNW,292,0.0,-999.0,39,-99.99,,,0.00,Acu-Link.com,2013-02-03 04:16:00,
2013-02-02 21:32:00,41.0,18.6,30.17,WNW,292,0.0,-999.0,40,-99.99,,,0.00,Acu-Link.com,2013-02-03 04:32:00,
2013-02-02 21:47:00,40.8,19.5,30.18,NNW,337,2.2,-999.0,42,-99.99,,,0.00,Acu-Link.com,2013-02-03 04:47:00,
2013-02-02 22:02:00,41.2,19.3,30.18,NW,315,1.6,-999.0,41,-99.99,,,0.00,Acu-Link.com,2013-02-03 05:02:00,
2013-02-02 22:17:00,41.4,19.5,30.18,NW,315,2.7,-999.0,41,-99.99,,,0.00,Acu-Link.com,2013-02-03 05:17:00,
2013-02-02 22:32:00,40.8,20.1,30.18,NW,315,2.7,-999.0,43,-99.99,,,0.00,Acu-Link.com,2013-02-03 05:32:00,
2013-02-02 22:48:00,40.1,21.5,30.18,WNW,292,2.7,-999.0,47,-99.99,,,0.00,Acu-Link.com,2013-02-03 05:48:00,
2013-02-02 23:03:00,40.1,22.5,30.18,NNW,337,3.1,-999.0,49,-99.99,,,0.00,Acu-Link.com,2013-02-03 06:03:00,
2013-02-02 23:18:00,39.6,22.0,30.17,West,270,2.7,-999.0,49,-99.99,,,0.00,Acu-Link.com,2013-02-03 06:18:00,
2013-02-02 23:33:00,39.0,22.0,30.17,NW,315,2.7,-999.0,50,-99.99,,,0.00,Acu-Link.com,2013-02-03 06:33:00,
2013-02-02 23:48:00,38.5,22.4,30.16,NNW,337,3.1,-999.0,52,-99.99,,,0.00,Acu-Link.com,2013-02-03 06:48:00,